Time;durP1;ratioP1;P1;durP2;ratioP2;P2;SDS_P1;SDS_P2;PMS_P1;PMS_P2;Temp;Humidity;BMP_temperature;BMP_pressure;BME280_temperature;BME280_humidity;BME280_pressure;Samples;Min_cycle;Max_cycle;Signal;HPM_P1;HPM_P2
2023/01/31 00:01:13;;;;;;;3.50;1.90;;;;;;;2.70;61.21;100990.88;4916365;29;20438;-84
2023/01/31 00:03:39;;;;;;;5.35;1.92;;;;;;;2.73;60.86;100985.72;4916536;29;20175;-83
2023/01/31 00:06:16;;;;;;;8.05;2.55;;;;;;;2.84;60.38;100994.97;4931761;29;20519;-84
2023/01/31 00:08:42;;;;;;;2.22;1.90;;;;;;;2.81;60.39;100982.22;4916961;29;20032;-84
2023/01/31 00:11:07;;;;;;;1.67;1.33;;;;;;;2.83;60.34;100972.00;4915904;29;20530;-83
2023/01/31 00:13:33;;;;;;;1.83;1.73;;;;;;;3.01;59.72;100987.13;4932099;29;20028;-83
2023/01/31 00:15:58;;;;;;;4.72;3.00;;;;;;;2.99;59.57;100991.41;4916342;29;20028;-84
2023/01/31 00:18:24;;;;;;;8.35;4.78;;;;;;;2.99;58.59;100986.28;4916183;29;20027;-83
2023/01/31 00:20:50;;;;;;;3.47;2.40;;;;;;;2.99;58.92;100967.56;4915961;29;20080;-83
2023/01/31 00:23:15;;;;;;;0.98;0.95;;;;;;;3.00;58.63;100980.31;4915911;29;20039;-83
2023/01/31 00:25:41;;;;;;;2.33;1.95;;;;;;;3.03;57.14;100982.81;4916096;29;20032;-83
2023/01/31 00:28:06;;;;;;;5.78;2.40;;;;;;;3.05;57.43;100976.00;4915893;29;20505;-83
2023/01/31 00:30:32;;;;;;;4.20;2.92;;;;;;;2.99;57.17;100972.66;4916051;29;20488;-83
2023/01/31 00:32:57;;;;;;;5.53;2.95;;;;;;;2.93;57.59;100959.94;4916078;29;20028;-83
2023/01/31 00:35:23;;;;;;;1.63;1.52;;;;;;;3.08;57.51;100980.22;4931731;29;20027;-83
2023/01/31 00:37:49;;;;;;;4.32;2.80;;;;;;;3.03;56.99;100962.38;4915530;29;20039;-83
2023/01/31 00:40:14;;;;;;;0.70;0.70;;;;;;;3.08;56.86;100986.19;4915955;29;20043;-83
2023/01/31 00:42:40;;;;;;;1.92;1.52;;;;;;;3.11;57.06;100975.06;4932127;29;20466;-83
2023/01/31 00:45:06;;;;;;;4.95;3.22;;;;;;;3.25;56.40;100985.13;4916078;29;20491;-84
2023/01/31 00:47:31;;;;;;;6.30;3.08;;;;;;;3.28;55.65;100990.19;4931474;29;20035;-84
2023/01/31 00:49:57;;;;;;;3.03;2.78;;;;;;;3.37;55.36;100995.19;4915904;29;20035;-84
2023/01/31 00:52:22;;;;;;;4.55;2.60;;;;;;;3.42;55.02;100988.28;4915632;29;20495;-84
2023/01/31 00:54:48;;;;;;;4.53;3.85;;;;;;;3.41;55.14;100973.81;4916281;29;20066;-84
2023/01/31 00:57:13;;;;;;;7.68;1.67;;;;;;;3.45;55.40;100984.00;4915878;29;20427;-84
2023/01/31 00:59:39;;;;;;;2.03;1.88;;;;;;;3.41;55.69;100978.94;4931525;29;20070;-83
2023/01/31 01:02:04;;;;;;;3.92;2.63;;;;;;;3.49;55.53;100997.56;4915835;29;20032;-84
2023/01/31 01:04:29;;;;;;;4.57;1.17;;;;;;;3.31;56.21;100980.75;4915649;29;20104;-84
2023/01/31 01:06:55;;;;;;;4.20;2.90;;;;;;;3.37;56.67;101008.81;4917727;29;20036;-83
2023/01/31 01:09:21;;;;;;;3.30;3.00;;;;;;;3.32;57.13;101012.28;4918713;29;20036;-83
2023/01/31 01:11:47;;;;;;;7.63;3.20;;;;;;;3.25;57.40;101018.38;4919213;29;20174;-83
2023/01/31 01:14:12;;;;;;;6.70;2.60;;;;;;;3.17;57.59;101005.69;4919016;29;20035;-83
2023/01/31 01:16:38;;;;;;;5.60;3.22;;;;;;;3.19;57.54;100991.16;4919152;29;20043;-84
2023/01/31 01:19:05;;;;;;;3.55;2.47;;;;;;;3.27;57.35;101002.13;4919061;29;20094;-84
2023/01/31 01:21:31;;;;;;;6.72;3.70;;;;;;;3.31;58.00;100992.69;4934528;29;20032;-84
2023/01/31 01:23:59;;;;;;;5.22;3.13;;;;;;;3.17;57.95;100973.28;4918928;29;20517;-84
2023/01/31 01:26:26;;;;;;;3.78;2.58;;;;;;;3.25;58.29;100980.88;4934522;29;20440;-84
2023/01/31 01:28:53;;;;;;;6.25;3.42;;;;;;;3.13;59.09;100976.72;4918976;29;21068;-85
2023/01/31 01:31:18;;;;;;;2.95;0.93;;;;;;;3.16;58.79;100983.53;4918350;29;20032;-85
2023/01/31 01:33:44;;;;;;;3.05;2.47;;;;;;;3.27;58.80;100991.06;4918006;29;20186;-84
2023/01/31 01:36:12;;;;;;;3.90;2.03;;;;;;;2.99;58.82;100942.00;4918508;29;20086;-84
2023/01/31 01:38:37;;;;;;;5.57;2.97;;;;;;;3.20;58.62;100963.88;4918727;29;20036;-84
2023/01/31 01:41:03;;;;;;;4.72;2.53;;;;;;;3.26;58.55;100974.03;4934426;29;20040;-84
2023/01/31 01:43:45;;;;;;;1.15;1.05;;;;;;;3.17;58.87;100955.38;4934465;29;20023;-84
2023/01/31 01:46:27;;;;;;;2.88;2.50;;;;;;;3.28;59.13;100983.38;4918784;29;20122;-84
2023/01/31 01:49:15;;;;;;;4.57;2.10;;;;;;;3.20;59.41;100977.50;4934015;29;20392;-84
2023/01/31 01:51:41;;;;;;;4.47;2.38;;;;;;;2.84;59.54;100935.34;4934198;29;20031;-83
2023/01/31 01:54:08;;;;;;;4.80;2.65;;;;;;;3.06;59.94;100972.59;4918322;29;20031;-85
2023/01/31 01:56:36;;;;;;;2.75;2.22;;;;;;;3.11;59.83;100985.28;4918331;29;20118;-84
2023/01/31 01:59:07;;;;;;;7.32;2.92;;;;;;;3.17;59.71;101003.97;4918469;29;20043;-84
2023/01/31 02:01:34;;;;;;;5.82;3.45;;;;;;;3.08;60.18;100998.97;4918685;29;20040;-84
2023/01/31 02:04:00;;;;;;;4.30;2.78;;;;;;;3.03;60.35;101003.28;4918033;29;20040;-84
2023/01/31 02:06:25;;;;;;;3.83;2.35;;;;;;;3.01;60.63;100984.56;4917784;29;20062;-83
2023/01/31 02:08:51;;;;;;;9.00;3.05;;;;;;;3.10;60.36;101010.00;4918073;29;20034;-83
2023/01/31 02:11:25;;;;;;;4.05;2.25;;;;;;;2.99;60.46;100981.19;4918013;29;20504;-84
2023/01/31 02:13:53;;;;;;;2.90;2.28;;;;;;;3.13;60.76;101002.28;4917907;29;20024;-83
2023/01/31 02:16:19;;;;;;;1.35;1.15;;;;;;;3.07;61.02;101007.50;4918199;29;20078;-84
2023/01/31 02:18:44;;;;;;;8.68;3.70;;;;;;;2.90;61.45;100976.19;4917312;29;20679;-83
2023/01/31 02:21:36;;;;;;;6.55;3.53;;;;;;;3.08;61.31;100986.19;4917448;29;20039;-84
2023/01/31 02:24:19;;;;;;;3.22;1.77;;;;;;;3.10;61.90;100992.13;4935996;29;20040;-83
2023/01/31 02:26:57;;;;;;;2.55;1.92;;;;;;;2.95;62.23;100966.75;4933590;29;20035;-84
2023/01/31 02:29:33;;;;;;;2.00;1.60;;;;;;;3.12;61.77;100998.03;4934502;29;20554;-83
2023/01/31 02:32:32;;;;;;;4.90;1.73;;;;;;;3.23;61.75;101014.97;4918417;29;20032;-85
2023/01/31 02:35:16;;;;;;;2.05;1.90;;;;;;;3.17;61.98;101016.75;4933055;29;20031;-84
2023/01/31 02:37:52;;;;;;;9.68;3.22;;;;;;;3.13;61.88;101009.97;4917943;29;20034;-84
2023/01/31 02:40:20;;;;;;;3.90;2.75;;;;;;;3.32;62.03;101035.31;4933460;29;20074;-84
2023/01/31 02:42:48;;;;;;;1.50;1.40;;;;;;;3.24;61.46;101016.66;4934503;29;20035;-83
2023/01/31 02:45:35;;;;;;;3.08;1.98;;;;;;;3.14;61.33;100998.03;4933326;29;20502;-84
2023/01/31 02:48:00;;;;;;;6.43;2.78;;;;;;;3.29;61.42;101053.25;4918167;29;20174;-83
2023/01/31 02:50:30;;;;;;;1.70;1.60;;;;;;;3.07;61.60;101014.31;4948776;29;20546;-84
2023/01/31 02:53:16;;;;;;;5.22;1.50;;;;;;;3.26;61.89;101058.41;4917495;29;20032;-83
2023/01/31 02:56:18;;;;;;;2.63;1.13;;;;;;;3.08;62.16;101031.34;4919508;29;20027;-84
2023/01/31 02:58:56;;;;;;;2.78;2.35;;;;;;;3.00;62.50;101031.44;4921184;29;20031;-84
2023/01/31 03:01:26;;;;;;;2.90;2.65;;;;;;;2.77;62.90;100995.91;4917102;29;20028;-83
2023/01/31 03:03:52;;;;;;;7.60;6.10;;;;;;;2.90;63.61;101034.97;4916785;29;20040;-83
2023/01/31 03:06:24;;;;;;;2.15;1.95;;;;;;;2.87;63.29;101027.34;4916720;29;20052;-83
2023/01/31 03:09:02;;;;;;;6.60;3.07;;;;;;;2.71;64.11;101008.75;4948566;29;20122;-83
2023/01/31 03:12:05;;;;;;;6.45;4.03;;;;;;;2.75;64.09;101012.09;4932905;29;20268;-84
2023/01/31 03:14:43;;;;;;;4.78;3.13;;;;;;;2.64;63.72;100998.59;4912831;29;20650;-84
2023/01/31 03:17:41;;;;;;;3.20;2.83;;;;;;;2.64;64.42;101012.22;4931927;29;20042;-83
2023/01/31 03:20:17;;;;;;;3.35;2.10;;;;;;;2.63;64.36;101013.09;4930898;29;20471;-83
2023/01/31 03:22:51;;;;;;;7.53;4.30;;;;;;;2.59;64.36;101021.66;4932588;29;20032;-83
2023/01/31 03:25:18;;;;;;;4.18;3.05;;;;;;;2.38;64.43;100986.97;4916598;29;20071;-83
2023/01/31 03:27:47;;;;;;;4.50;3.65;;;;;;;2.32;63.96;100975.94;4916673;29;20036;-84
2023/01/31 03:30:15;;;;;;;8.73;4.07;;;;;;;2.66;64.43;101033.50;4916594;29;20028;-83
2023/01/31 03:32:49;;;;;;;4.15;3.78;;;;;;;2.69;64.53;101030.06;4916683;29;20392;-83
2023/01/31 03:35:15;;;;;;;4.75;3.33;;;;;;;2.58;64.23;101025.91;4916976;29;20551;-83
2023/01/31 03:37:50;;;;;;;3.95;3.63;;;;;;;2.57;64.49;101037.00;4932469;29;20027;-84
2023/01/31 03:40:22;;;;;;;4.72;2.72;;;;;;;2.57;65.19;101046.38;4917228;29;20066;-83
2023/01/31 03:42:54;;;;;;;8.18;4.32;;;;;;;2.52;65.28;101046.41;4917175;29;20040;-83
2023/01/31 03:45:36;;;;;;;7.90;5.18;;;;;;;2.55;65.27;101051.47;4916812;29;20024;-83
2023/01/31 03:48:02;;;;;;;4.23;2.63;;;;;;;2.52;65.41;101056.63;4917566;29;20106;-83
2023/01/31 03:50:37;;;;;;;4.70;2.90;;;;;;;2.57;65.16;101066.81;4916625;29;20272;-82
2023/01/31 03:53:24;;;;;;;8.27;4.72;;;;;;;2.61;65.23;101082.94;4916790;29;20028;-84
2023/01/31 03:55:56;;;;;;;2.20;1.30;;;;;;;2.66;65.09;101079.50;4932244;29;20032;-84
2023/01/31 03:58:24;;;;;;;7.33;3.50;;;;;;;2.62;65.43;101082.06;4932424;29;20071;-89
2023/01/31 04:00:49;;;;;;;12.48;3.42;;;;;;;2.57;65.47;101090.63;4916787;29;20036;-89
2023/01/31 04:03:35;;;;;;;2.50;2.28;;;;;;;2.56;65.74;101077.88;4917019;29;20163;-88
2023/01/31 04:06:00;;;;;;;2.20;2.03;;;;;;;2.50;65.58;101062.59;4916994;29;20056;-90
2023/01/31 04:08:26;;;;;;;5.70;3.33;;;;;;;2.56;65.67;101065.13;4916444;29;20039;-90
2023/01/31 04:10:51;;;;;;;6.63;3.33;;;;;;;2.54;65.90;101082.97;4916487;29;20491;-88
2023/01/31 04:13:17;;;;;;;7.25;3.22;;;;;;;2.58;66.02;101074.44;4916690;29;20095;-90
2023/01/31 04:15:42;;;;;;;6.55;3.92;;;;;;;2.63;66.03;101089.72;4916277;29;20036;-88
2023/01/31 04:18:07;;;;;;;4.13;3.60;;;;;;;2.68;65.98;101097.34;4916411;29;20051;-89
2023/01/31 04:20:33;;;;;;;3.65;3.13;;;;;;;2.61;66.00;101080.38;4916425;29;20047;-88
2023/01/31 04:22:58;;;;;;;6.38;4.10;;;;;;;2.76;66.03;101105.81;4916920;29;20516;-90
2023/01/31 04:25:25;;;;;;;1.15;1.13;;;;;;;2.59;66.43;101072.75;4916744;29;20491;-89
2023/01/31 04:27:50;;;;;;;3.88;3.15;;;;;;;2.76;66.16;101096.44;4918250;28;20030;-90
2023/01/31 04:30:16;;;;;;;12.95;5.82;;;;;;;2.86;65.91;101102.31;4952993;28;20027;-86
2023/01/31 04:32:41;;;;;;;12.75;4.97;;;;;;;2.72;65.47;101073.47;4934568;29;20483;-86
2023/01/31 04:35:08;;;;;;;2.53;1.88;;;;;;;2.76;65.86;101080.25;4951016;29;20391;-87
2023/01/31 04:37:34;;;;;;;3.35;3.08;;;;;;;2.94;65.76;101110.72;4935013;28;20031;-87
2023/01/31 04:40:00;;;;;;;7.22;4.32;;;;;;;2.97;65.89;101126.03;4920047;28;20035;-87
2023/01/31 04:42:25;;;;;;;3.97;2.92;;;;;;;3.05;65.90;101119.16;4938361;28;20035;-88
2023/01/31 04:44:50;;;;;;;6.75;4.93;;;;;;;3.10;65.85;101119.09;4938604;29;20502;-88
2023/01/31 04:47:16;;;;;;;13.73;5.45;;;;;;;3.12;65.49;101117.34;4938714;29;20031;-87
2023/01/31 04:49:42;;;;;;;5.10;3.47;;;;;;;3.17;65.56;101107.94;4938202;29;20042;-88
2023/01/31 04:52:09;;;;;;;2.88;2.60;;;;;;;3.17;65.81;101102.84;4938872;28;20126;-88
2023/01/31 04:54:35;;;;;;;15.70;2.15;;;;;;;3.23;65.71;101117.25;4938590;28;20027;-88
2023/01/31 04:57:01;;;;;;;7.57;3.42;;;;;;;3.40;65.54;101120.47;4938568;28;20043;-88
2023/01/31 04:59:26;;;;;;;4.70;2.85;;;;;;;3.39;65.43;101116.22;4937845;29;20039;-90
2023/01/31 05:01:52;;;;;;;5.43;3.85;;;;;;;3.39;65.41;101118.78;4938112;29;20035;-88
2023/01/31 05:04:17;;;;;;;8.02;4.22;;;;;;;3.47;65.31;101126.38;4938246;29;20070;-90
2023/01/31 05:06:43;;;;;;;13.15;6.38;;;;;;;3.36;65.58;101100.91;4938069;29;20482;-85
2023/01/31 05:09:10;;;;;;;7.90;3.13;;;;;;;3.51;65.08;101112.66;4935688;29;20035;-85
2023/01/31 05:11:35;;;;;;;5.45;3.70;;;;;;;3.59;64.90;101111.72;4955003;28;20566;-84
2023/01/31 05:14:01;;;;;;;8.88;4.63;;;;;;;3.66;64.77;101128.69;4953058;29;20031;-85
2023/01/31 05:16:26;;;;;;;12.85;4.85;;;;;;;3.67;64.69;101126.97;4953992;29;20031;-94
2023/01/31 05:18:52;;;;;;;2.28;2.08;;;;;;;3.61;64.95;101119.34;4962904;28;20046;-92
2023/01/31 05:21:18;;;;;;;9.27;4.88;;;;;;;3.53;64.90;101106.66;4922478;29;20059;-88
2023/01/31 05:23:43;;;;;;;4.07;2.80;;;;;;;3.73;64.69;101120.03;4922035;29;20487;-91
2023/01/31 05:26:09;;;;;;;3.53;3.20;;;;;;;3.86;64.67;101130.97;4953784;29;20027;-83
2023/01/31 05:28:34;;;;;;;7.30;5.20;;;;;;;3.87;64.20;101111.34;4952585;29;20035;-88
2023/01/31 05:31:01;;;;;;;5.80;2.47;;;;;;;3.93;63.96;101119.81;4949837;29;20478;-90
2023/01/31 05:33:27;;;;;;;8.40;5.43;;;;;;;4.04;63.75;101124.78;4937160;29;20037;-81
2023/01/31 05:35:53;;;;;;;6.45;3.45;;;;;;;3.96;63.83;101117.19;4937406;29;20059;-80
2023/01/31 05:38:18;;;;;;;4.90;3.70;;;;;;;3.91;63.97;101097.63;4952991;29;20039;-81
2023/01/31 05:40:44;;;;;;;11.55;4.90;;;;;;;4.05;63.35;101112.81;4954324;29;20474;-88
2023/01/31 05:43:10;;;;;;;15.20;5.32;;;;;;;4.09;63.63;101127.25;4921115;29;20034;-89
2023/01/31 05:45:36;;;;;;;4.88;3.72;;;;;;;4.11;63.65;101111.00;4935374;29;20118;-92
2023/01/31 05:48:01;;;;;;;8.95;4.65;;;;;;;3.96;63.42;101089.03;4938287;29;20075;-89
2023/01/31 05:50:27;;;;;;;8.93;4.88;;;;;;;3.93;63.67;101101.88;4945065;29;20509;-90
2023/01/31 05:52:53;;;;;;;15.63;6.70;;;;;;;4.19;63.37;101139.06;4923132;28;20508;-91
2023/01/31 05:55:19;;;;;;;9.48;4.95;;;;;;;4.20;63.44;101133.91;4940971;28;20122;-96
2023/01/31 05:57:45;;;;;;;8.32;4.95;;;;;;;4.20;63.60;101143.31;4954210;28;20043;-93
2023/01/31 06:00:11;;;;;;;16.20;7.35;;;;;;;4.14;63.40;101141.69;4938537;29;20066;-91
2023/01/31 06:02:36;;;;;;;8.32;6.00;;;;;;;3.94;64.07;101098.47;4936923;29;20062;-81
2023/01/31 06:05:02;;;;;;;9.80;6.15;;;;;;;4.39;63.20;101149.00;4952750;29;20054;-91
2023/01/31 06:07:27;;;;;;;15.63;8.32;;;;;;;4.27;63.49;101145.75;4939470;29;20062;-89
2023/01/31 06:09:53;;;;;;;11.75;6.78;;;;;;;4.27;63.55;101138.09;4928344;29;20364;-91
2023/01/31 06:12:18;;;;;;;11.48;5.82;;;;;;;4.26;63.23;101135.53;4932568;29;20063;-86
2023/01/31 06:14:45;;;;;;;7.93;5.70;;;;;;;4.43;63.22;101168.59;4951174;29;20038;-81
2023/01/31 06:17:11;;;;;;;9.57;6.85;;;;;;;4.32;62.81;101149.09;4952343;29;20110;-81
2023/01/31 06:19:37;;;;;;;13.93;7.03;;;;;;;4.49;62.65;101169.34;4954135;29;20031;-90
2023/01/31 06:22:03;;;;;;;12.55;7.20;;;;;;;4.41;62.69;101150.66;4921728;29;20023;-89
2023/01/31 06:24:29;;;;;;;10.45;6.60;;;;;;;4.49;62.74;101159.09;4949085;28;20042;-86
2023/01/31 06:26:54;;;;;;;10.57;5.40;;;;;;;4.38;62.57;101147.31;4938709;29;20031;-87
2023/01/31 06:29:20;;;;;;;7.57;4.40;;;;;;;4.49;62.89;101177.03;4961092;28;20042;-87
2023/01/31 06:31:45;;;;;;;10.95;3.75;;;;;;;4.47;62.42;101171.09;4953658;29;20083;-91
2023/01/31 06:34:11;;;;;;;6.00;4.63;;;;;;;4.41;62.49;101160.06;4954123;29;20035;-89
2023/01/31 06:36:36;;;;;;;11.30;7.55;;;;;;;4.43;62.79;101179.69;4952425;29;20031;-91
2023/01/31 06:39:03;;;;;;;17.35;7.47;;;;;;;4.45;62.66;101162.59;4951565;29;20027;-86
2023/01/31 06:41:28;;;;;;;5.38;3.97;;;;;;;4.48;62.43;101161.69;4927898;29;20388;-90
2023/01/31 06:43:54;;;;;;;10.35;5.53;;;;;;;4.38;62.24;101160.97;4933104;29;20042;-91
2023/01/31 06:46:19;;;;;;;15.48;7.40;;;;;;;4.55;62.01;101178.66;4947489;29;20027;-90
2023/01/31 06:48:47;;;;;;;5.32;3.50;;;;;;;4.61;61.88;101181.97;4938916;29;20027;-92
2023/01/31 06:51:12;;;;;;;8.82;5.07;;;;;;;4.66;61.70;101181.91;4954971;28;20038;-87
2023/01/31 06:53:38;;;;;;;9.00;3.95;;;;;;;4.59;62.19;101185.41;4949653;28;20035;-94
2023/01/31 06:56:04;;;;;;;4.00;2.10;;;;;;;4.67;62.36;101178.47;4930637;29;20092;-91
2023/01/31 06:58:29;;;;;;;11.10;4.13;;;;;;;4.73;61.92;101192.91;4952877;28;20418;-87
2023/01/31 07:00:55;;;;;;;8.85;4.97;;;;;;;4.75;61.38;101176.63;4967531;28;20034;-93
2023/01/31 07:03:21;;;;;;;11.13;5.13;;;;;;;4.81;61.58;101188.47;4935624;29;20031;-93
2023/01/31 07:05:47;;;;;;;9.48;4.68;;;;;;;4.83;61.12;101172.22;4935128;29;20047;-92
2023/01/31 07:08:13;;;;;;;8.48;5.25;;;;;;;4.61;61.14;101132.41;4931460;29;20578;-81
2023/01/31 07:10:38;;;;;;;7.03;3.53;;;;;;;4.95;60.80;101172.91;4936084;28;20122;-85
2023/01/31 07:13:04;;;;;;;7.03;4.70;;;;;;;5.07;61.36;101188.91;4937626;29;20082;-91
2023/01/31 07:15:30;;;;;;;15.70;4.03;;;;;;;5.18;61.25;101184.44;4937696;29;20036;-92
2023/01/31 07:17:58;;;;;;;12.80;6.43;;;;;;;5.27;60.90;101180.00;4933229;29;20554;-83
2023/01/31 07:20:24;;;;;;;8.55;4.80;;;;;;;5.31;60.66;101177.38;4947277;29;20035;-81
2023/01/31 07:22:54;;;;;;;18.45;6.28;;;;;;;5.40;60.62;101181.47;4946182;28;20035;-80
2023/01/31 07:25:20;;;;;;;11.50;5.00;;;;;;;5.05;60.74;101131.69;4938535;29;20098;-90
2023/01/31 07:27:45;;;;;;;7.85;4.63;;;;;;;5.12;60.09;101158.06;4918480;29;20027;-87
2023/01/31 07:30:11;;;;;;;20.35;4.10;;;;;;;5.24;60.44;101173.22;4942186;29;20043;-78
2023/01/31 07:32:37;;;;;;;8.88;4.68;;;;;;;5.18;60.93;101191.28;4931472;29;20045;-79
2023/01/31 07:35:02;;;;;;;4.75;4.28;;;;;;;5.33;61.15;101191.03;4933120;29;20126;-84
2023/01/31 07:37:29;;;;;;;10.88;5.07;;;;;;;5.41;60.32;101193.44;4940484;29;20034;-94
2023/01/31 07:39:54;;;;;;;7.95;5.88;;;;;;;5.41;60.75;101202.00;4948536;29;20038;-92
2023/01/31 07:42:20;;;;;;;8.13;4.30;;;;;;;5.36;60.79;101200.38;4937452;29;20035;-90
2023/01/31 07:44:45;;;;;;;9.35;3.05;;;;;;;5.34;60.77;101191.88;4947816;29;20035;-82
2023/01/31 07:47:11;;;;;;;8.57;5.40;;;;;;;5.44;60.26;101199.34;4931466;29;20515;-84
2023/01/31 07:49:36;;;;;;;12.75;5.85;;;;;;;5.51;60.33;101183.84;4947492;28;20031;-92
2023/01/31 07:52:02;;;;;;;23.60;5.68;;;;;;;5.48;60.00;101175.31;4944719;29;20035;-80
2023/01/31 07:54:27;;;;;;;7.75;5.90;;;;;;;5.46;59.61;101168.53;4926908;28;20091;-86
2023/01/31 07:56:53;;;;;;;9.75;5.55;;;;;;;5.54;59.30;101187.19;4931817;29;20020;-77
2023/01/31 07:59:18;;;;;;;10.65;5.85;;;;;;;5.64;59.76;101201.56;4946560;28;20111;-87
2023/01/31 08:04:29;;;;;;;3.58;2.10;;;;;;;5.67;59.75;101195.50;4926093;28;20055;-88
2023/01/31 08:06:55;;;;;;;6.97;3.60;;;;;;;5.67;59.46;101172.41;4919694;29;20034;-91
2023/01/31 08:09:21;;;;;;;13.63;4.82;;;;;;;5.69;59.39;101162.94;4925716;29;20097;-86
2023/01/31 08:11:47;;;;;;;8.30;4.47;;;;;;;5.53;59.13;101125.66;4940213;29;20050;-85
2023/01/31 08:14:12;;;;;;;6.18;3.00;;;;;;;5.82;59.62;101163.56;4934794;29;20027;-81
2023/01/31 08:16:38;;;;;;;6.63;3.28;;;;;;;5.80;59.02;101150.75;4949376;28;20538;-82
2023/01/31 08:19:04;;;;;;;19.73;5.50;;;;;;;5.79;58.24;101171.31;4948368;29;20561;-78
2023/01/31 08:21:29;;;;;;;6.32;3.25;;;;;;;5.70;58.58;101160.38;4931703;29;20027;-82
2023/01/31 08:23:55;;;;;;;7.22;4.57;;;;;;;5.92;58.54;101180.50;4951937;29;20498;-82
2023/01/31 08:26:21;;;;;;;6.03;2.95;;;;;;;5.90;58.04;101165.13;4957880;28;20407;-84
2023/01/31 08:28:47;;;;;;;15.23;5.13;;;;;;;6.01;57.64;101188.84;4932253;29;20035;-84
2023/01/31 08:31:15;;;;;;;5.97;3.30;;;;;;;5.93;58.40;101183.03;4934126;29;20491;-85
2023/01/31 08:33:40;;;;;;;17.38;6.47;;;;;;;6.03;57.92;101186.25;4950801;28;20403;-85
2023/01/31 08:36:11;;;;;;;4.03;2.60;;;;;;;5.92;57.86;101175.34;4950040;28;20028;-81
2023/01/31 08:38:37;;;;;;;8.57;4.55;;;;;;;6.12;57.85;101172.38;4936263;29;20035;-82
2023/01/31 08:41:02;;;;;;;4.93;3.10;;;;;;;6.23;58.08;101175.53;4939141;29;20057;-81
2023/01/31 08:43:27;;;;;;;11.38;4.28;;;;;;;6.24;56.98;101172.09;4961884;28;20027;-83
2023/01/31 08:45:53;;;;;;;13.65;4.50;;;;;;;6.11;57.50;101162.97;4950365;28;20048;-79
2023/01/31 08:48:18;;;;;;;3.00;2.38;;;;;;;6.16;57.90;101169.69;4950038;28;20063;-78
2023/01/31 08:50:44;;;;;;;7.05;4.00;;;;;;;6.40;57.98;101186.28;4949867;29;20630;-87
2023/01/31 08:53:09;;;;;;;6.55;3.42;;;;;;;6.39;56.99;101186.28;4950625;28;20087;-94
2023/01/31 08:55:35;;;;;;;7.53;3.60;;;;;;;6.19;56.78;101171.31;4939952;28;20054;-87
2023/01/31 08:58:01;;;;;;;6.80;4.05;;;;;;;6.36;57.20;101189.78;4936851;29;20113;-92
2023/01/31 09:00:27;;;;;;;6.43;3.15;;;;;;;6.33;57.26;101164.16;4952872;29;20414;-83
2023/01/31 09:02:53;;;;;;;14.40;4.97;;;;;;;6.36;56.63;101182.09;4958825;28;20090;-91
2023/01/31 09:05:19;;;;;;;8.27;5.03;;;;;;;6.34;56.51;101183.84;4937823;29;20163;-87
2023/01/31 09:07:44;;;;;;;7.00;3.55;;;;;;;6.37;56.37;101183.78;4935125;29;20024;-78
2023/01/31 09:10:10;;;;;;;15.27;4.32;;;;;;;6.44;56.27;101177.63;4934895;29;20087;-86
2023/01/31 09:12:36;;;;;;;6.38;3.42;;;;;;;6.41;56.25;101190.53;4955596;28;20083;-79
2023/01/31 09:15:02;;;;;;;9.00;4.18;;;;;;;6.41;56.39;101185.41;4948016;29;20118;-86
2023/01/31 09:17:28;;;;;;;5.50;4.22;;;;;;;6.29;56.91;101154.81;4952158;28;20023;-86
2023/01/31 09:19:54;;;;;;;7.22;3.55;;;;;;;6.53;56.62;101190.25;4957580;28;20521;-77
2023/01/31 09:22:19;;;;;;;7.60;4.50;;;;;;;6.61;54.97;101208.09;4934216;29;20118;-86
2023/01/31 09:24:45;;;;;;;9.05;3.88;;;;;;;6.43;55.52;101168.22;4948507;28;20084;-84
2023/01/31 09:27:11;;;;;;;5.05;2.83;;;;;;;6.79;56.34;101181.94;4933222;29;20426;-83
2023/01/31 09:29:37;;;;;;;7.40;4.15;;;;;;;7.00;55.05;101208.84;4942502;29;20035;-86
2023/01/31 09:32:03;;;;;;;7.75;4.22;;;;;;;6.81;55.18;101174.19;4956083;28;20559;-89
2023/01/31 09:34:28;;;;;;;15.95;5.63;;;;;;;6.74;56.14;101152.06;4949143;29;20027;-88
2023/01/31 09:36:56;;;;;;;10.80;3.90;;;;;;;6.83;55.12;101177.56;4945671;29;20040;-78
2023/01/31 09:39:24;;;;;;;4.00;3.00;;;;;;;6.92;54.59;101184.19;4935743;29;20043;-85
2023/01/31 09:41:53;;;;;;;5.13;3.60;;;;;;;6.52;54.87;101124.31;4948919;28;20040;-88
2023/01/31 09:44:21;;;;;;;5.20;2.92;;;;;;;6.75;55.45;101158.88;4936982;29;20032;-82
2023/01/31 09:46:58;;;;;;;10.38;5.00;;;;;;;6.92;55.60;101176.47;4947978;28;20574;-78
2023/01/31 09:49:30;;;;;;;6.85;3.80;;;;;;;6.97;54.17;101180.63;4946615;28;20031;-79
2023/01/31 09:51:58;;;;;;;14.43;3.33;;;;;;;6.95;53.98;101172.09;4955861;28;20028;-86
2023/01/31 09:54:31;;;;;;;6.13;3.90;;;;;;;6.74;54.15;101177.78;4957261;28;20067;-90
2023/01/31 09:57:19;;;;;;;20.02;3.47;;;;;;;6.61;54.86;101185.78;4948206;28;20570;-87
2023/01/31 09:59:47;;;;;;;6.13;2.63;;;;;;;6.67;55.10;101184.78;4944079;28;20048;-86
2023/01/31 10:02:28;;;;;;;8.57;4.88;;;;;;;6.54;54.69;101171.38;4967433;28;20862;-90
2023/01/31 10:05:06;;;;;;;7.57;4.28;;;;;;;6.80;54.03;101198.22;4935031;28;20055;-92
2023/01/31 10:07:36;;;;;;;6.85;2.92;;;;;;;6.74;54.00;101188.06;4964968;28;20035;-93
2023/01/31 10:10:14;;;;;;;5.63;2.95;;;;;;;6.98;53.16;101186.59;4948814;29;20023;-87
2023/01/31 10:12:46;;;;;;;2.85;1.95;;;;;;;7.02;52.46;101186.50;4969721;28;20027;-95
2023/01/31 10:15:21;;;;;;;4.82;3.63;;;;;;;7.22;52.35;101192.88;4934819;29;20027;-82
2023/01/31 10:17:52;;;;;;;2.53;2.22;;;;;;;7.22;52.71;101195.44;4960002;28;20027;-89
2023/01/31 10:20:37;;;;;;;3.83;2.28;;;;;;;7.32;51.18;101207.19;4962297;28;20499;-81
2023/01/31 10:23:25;;;;;;;6.85;3.55;;;;;;;7.27;51.32;101185.84;4962873;28;20023;-83
2023/01/31 10:26:02;;;;;;;2.67;1.98;;;;;;;7.13;51.83;101163.91;4948836;28;20502;-83
2023/01/31 10:28:59;;;;;;;3.88;1.92;;;;;;;7.38;53.18;101169.25;4950077;28;20037;-90
2023/01/31 10:31:44;;;;;;;1.70;1.40;;;;;;;7.29;53.15;101187.53;4950264;28;20436;-83
2023/01/31 10:34:40;;;;;;;4.88;2.25;;;;;;;7.23;52.46;101191.97;4947892;28;20027;-79
2023/01/31 10:37:14;;;;;;;6.10;2.83;;;;;;;6.99;53.28;101163.44;4933396;29;20042;-79
2023/01/31 10:39:47;;;;;;;5.72;2.88;;;;;;;6.87;53.55;101174.84;4957071;28;20037;-79
2023/01/31 10:42:34;;;;;;;7.03;2.90;;;;;;;6.53;53.68;101149.13;4954852;28;20023;-80
2023/01/31 10:45:02;;;;;;;5.57;2.33;;;;;;;6.94;54.55;101179.84;4936344;29;20062;-90
2023/01/31 10:47:36;;;;;;;1.55;1.20;;;;;;;7.18;54.29;101177.53;4953313;29;20027;-91
2023/01/31 10:50:13;;;;;;;1.20;1.10;;;;;;;7.17;53.86;101168.09;4949207;29;20034;-87
2023/01/31 10:52:57;;;;;;;2.75;1.73;;;;;;;7.19;53.22;101176.63;4939339;28;20678;-83
2023/01/31 10:55:47;;;;;;;1.45;1.15;;;;;;;7.02;53.26;101126.50;4949275;29;20073;-85
2023/01/31 10:58:14;;;;;;;5.72;3.08;;;;;;;7.43;53.11;101159.66;4964842;28;20019;-84
2023/01/31 11:00:39;;;;;;;6.32;3.30;;;;;;;7.48;51.90;101167.28;4953584;28;20782;-84
2023/01/31 11:03:05;;;;;;;3.30;1.98;;;;;;;7.42;51.34;101152.84;4966391;28;20038;-87
2023/01/31 11:05:30;;;;;;;3.65;1.98;;;;;;;7.47;51.47;101160.41;4967340;28;20055;-95
2023/01/31 11:08:00;;;;;;;3.42;1.52;;;;;;;7.50;51.33;101155.22;4965636;28;20392;-79
2023/01/31 11:10:30;;;;;;;2.70;1.67;;;;;;;7.47;50.29;101137.25;4950672;29;20031;-80
2023/01/31 11:13:00;;;;;;;3.72;1.95;;;;;;;7.52;49.57;101158.56;4933299;29;20027;-85
2023/01/31 11:15:34;;;;;;;5.00;2.58;;;;;;;7.48;50.70;101151.84;4964931;28;20023;-83
2023/01/31 11:18:00;;;;;;;2.17;1.30;;;;;;;7.49;51.35;101132.94;4948676;29;20520;-78
2023/01/31 11:20:29;;;;;;;5.25;3.13;;;;;;;7.31;50.54;101112.84;4948952;29;20031;-87
2023/01/31 11:22:55;;;;;;;2.45;1.95;;;;;;;7.63;51.62;101150.56;4963221;28;20035;-86
2023/01/31 11:25:21;;;;;;;2.22;1.48;;;;;;;7.35;50.62;101129.88;4931401;29;20037;-86
2023/01/31 11:27:47;;;;;;;1.40;1.30;;;;;;;7.51;51.71;101167.19;4947589;29;20032;-83
2023/01/31 11:30:25;;;;;;;4.50;2.90;;;;;;;7.60;51.97;101174.66;4947651;28;20024;-82
2023/01/31 11:32:51;;;;;;;4.18;2.38;;;;;;;7.50;51.41;101175.81;4931792;29;20036;-80
2023/01/31 11:35:16;;;;;;;2.35;1.42;;;;;;;7.20;52.08;101182.63;4948485;29;20032;-83
2023/01/31 11:37:59;;;;;;;5.00;3.05;;;;;;;6.81;52.83;101144.16;4951882;28;20043;-81
2023/01/31 11:40:34;;;;;;;3.45;1.88;;;;;;;7.01;53.24;101146.22;4950898;29;20030;-85
2023/01/31 11:43:20;;;;;;;2.92;2.13;;;;;;;6.95;54.30;101160.97;4948457;28;20504;-87